sensor_id;sensor_type;location;lat;lon;timestamp;pressure;altitude;pressure_sealevel;temperature;humidity
29505;BME280;16452;54.174;12.092;2023-03-01T00:01:15;103049.44;;;3.50;94.87
29505;BME280;16452;54.174;12.092;2023-03-01T00:03:41;103049.66;;;3.67;93.30
29505;BME280;16452;54.174;12.092;2023-03-01T00:06:08;103049.03;;;3.83;92.53
29505;BME280;16452;54.174;12.092;2023-03-01T00:08:35;103039.31;;;3.62;92.57
29505;BME280;16452;54.174;12.092;2023-03-01T00:11:18;103045.88;;;3.41;93.13
29505;BME280;16452;54.174;12.092;2023-03-01T00:13:46;103042.28;;;3.29;93.51
29505;BME280;16452;54.174;12.092;2023-03-01T00:16:26;103036.19;;;3.23;94.51
29505;BME280;16452;54.174;12.092;2023-03-01T00:18:53;103040.59;;;3.30;94.54
29505;BME280;16452;54.174;12.092;2023-03-01T00:21:20;103043.09;;;3.25;94.93
29505;BME280;16452;54.174;12.092;2023-03-01T00:23:48;103041.38;;;3.24;95.36
29505;BME280;16452;54.174;12.092;2023-03-01T00:26:15;103035.34;;;3.24;95.80
29505;BME280;16452;54.174;12.092;2023-03-01T00:28:41;103034.34;;;3.16;96.27
29505;BME280;16452;54.174;12.092;2023-03-01T00:31:16;103036.41;;;3.37;94.89
29505;BME280;16452;54.174;12.092;2023-03-01T00:33:43;103036.41;;;3.40;93.40
29505;BME280;16452;54.174;12.092;2023-03-01T00:36:12;103029.66;;;3.46;92.89
29505;BME280;16452;54.174;12.092;2023-03-01T00:38:41;103039.91;;;3.45;92.64
29505;BME280;16452;54.174;12.092;2023-03-01T00:41:11;103039.88;;;3.40;92.65
29505;BME280;16452;54.174;12.092;2023-03-01T00:43:38;103045.03;;;3.40;92.52
29505;BME280;16452;54.174;12.092;2023-03-01T00:46:19;103046.00;;;3.48;90.65
29505;BME280;16452;54.174;12.092;2023-03-01T00:48:45;103045.91;;;3.44;91.12
29505;BME280;16452;54.174;12.092;2023-03-01T00:51:24;103031.50;;;3.56;89.73
29505;BME280;16452;54.174;12.092;2023-03-01T00:53:53;103033.19;;;3.53;89.54
29505;BME280;16452;54.174;12.092;2023-03-01T00:56:20;103031.44;;;3.52;89.67
29505;BME280;16452;54.174;12.092;2023-03-01T00:58:46;103027.13;;;3.49;89.23
29505;BME280;16452;54.174;12.092;2023-03-01T01:01:19;103027.88;;;3.44;89.65
29505;BME280;16452;54.174;12.092;2023-03-01T01:03:56;103029.41;;;3.29;89.60
29505;BME280;16452;54.174;12.092;2023-03-01T01:06:28;103020.97;;;3.40;90.04
29505;BME280;16452;54.174;12.092;2023-03-01T01:08:56;103018.28;;;3.30;90.01
29505;BME280;16452;54.174;12.092;2023-03-01T01:11:24;103009.78;;;3.39;89.98
29505;BME280;16452;54.174;12.092;2023-03-01T01:13:51;103014.94;;;3.38;90.35
29505;BME280;16452;54.174;12.092;2023-03-01T01:16:18;103004.41;;;3.22;89.61
29505;BME280;16452;54.174;12.092;2023-03-01T01:18:45;102996.16;;;3.46;89.09
29505;BME280;16452;54.174;12.092;2023-03-01T01:21:15;102998.97;;;3.64;88.67
29505;BME280;16452;54.174;12.092;2023-03-01T01:23:42;102988.63;;;3.63;87.73
29505;BME280;16452;54.174;12.092;2023-03-01T01:26:19;102990.59;;;3.82;85.88
29505;BME280;16452;54.174;12.092;2023-03-01T01:28:46;102982.97;;;3.93;84.52
29505;BME280;16452;54.174;12.092;2023-03-01T01:31:13;102977.88;;;3.97;82.47
29505;BME280;16452;54.174;12.092;2023-03-01T01:33:39;102978.84;;;4.07;80.61
29505;BME280;16452;54.174;12.092;2023-03-01T01:36:06;102973.78;;;4.16;79.71
29505;BME280;16452;54.174;12.092;2023-03-01T01:38:33;102967.72;;;4.12;78.62
29505;BME280;16452;54.174;12.092;2023-03-01T01:40:59;102952.25;;;4.14;78.53
29505;BME280;16452;54.174;12.092;2023-03-01T01:43:34;102955.75;;;4.19;78.49
29505;BME280;16452;54.174;12.092;2023-03-01T01:46:30;102955.03;;;4.34;77.94
29505;BME280;16452;54.174;12.092;2023-03-01T01:49:12;102957.31;;;4.03;78.08
29505;BME280;16452;54.174;12.092;2023-03-01T01:51:45;102948.47;;;3.80;79.97
29505;BME280;16452;54.174;12.092;2023-03-01T01:57:45;102945.28;;;4.04;80.19
29505;BME280;16452;54.174;12.092;2023-03-01T02:00:21;102950.19;;;3.78;80.69
29505;BME280;16452;54.174;12.092;2023-03-01T02:02:56;102951.03;;;3.80;81.76
29505;BME280;16452;54.174;12.092;2023-03-01T02:05:57;102950.03;;;3.66;80.65
29505;BME280;16452;54.174;12.092;2023-03-01T02:08:28;102951.53;;;3.50;81.98
29505;BME280;16452;54.174;12.092;2023-03-01T02:10:56;102945.81;;;3.74;81.37
29505;BME280;16452;54.174;12.092;2023-03-01T02:13:23;102937.06;;;3.61;81.24
29505;BME280;16452;54.174;12.092;2023-03-01T02:15:49;102944.75;;;3.54;81.28
29505;BME280;16452;54.174;12.092;2023-03-01T02:18:18;102945.00;;;3.77;81.49
29505;BME280;16452;54.174;12.092;2023-03-01T02:21:04;102946.00;;;3.91;80.51
29505;BME280;16452;54.174;12.092;2023-03-01T02:23:33;102941.41;;;3.61;79.66
29505;BME280;16452;54.174;12.092;2023-03-01T02:26:15;102936.16;;;3.56;79.55
29505;BME280;16452;54.174;12.092;2023-03-01T02:28:44;102938.44;;;3.32;80.12
29505;BME280;16452;54.174;12.092;2023-03-01T02:31:14;102935.00;;;3.33;80.84
29505;BME280;16452;54.174;12.092;2023-03-01T02:34:00;102935.13;;;3.41;80.66
29505;BME280;16452;54.174;12.092;2023-03-01T02:36:36;102935.00;;;3.33;80.34
29505;BME280;16452;54.174;12.092;2023-03-01T02:39:07;102923.94;;;3.37;81.06
29505;BME280;16452;54.174;12.092;2023-03-01T02:41:44;102921.47;;;3.48;80.27
29505;BME280;16452;54.174;12.092;2023-03-01T02:44:11;102922.13;;;3.30;80.33
29505;BME280;16452;54.174;12.092;2023-03-01T02:46:47;102925.41;;;3.21;82.54
29505;BME280;16452;54.174;12.092;2023-03-01T02:49:27;102921.91;;;3.15;84.13
29505;BME280;16452;54.174;12.092;2023-03-01T02:52:40;102920.25;;;3.18;84.36
29505;BME280;16452;54.174;12.092;2023-03-01T02:55:12;102921.13;;;3.19;84.38
29505;BME280;16452;54.174;12.092;2023-03-01T02:57:43;102909.84;;;3.11;84.60
29505;BME280;16452;54.174;12.092;2023-03-01T03:00:17;102911.47;;;3.04;83.08
29505;BME280;16452;54.174;12.092;2023-03-01T03:02:50;102911.41;;;3.00;82.30
29505;BME280;16452;54.174;12.092;2023-03-01T03:05:42;102906.38;;;3.07;81.71
29505;BME280;16452;54.174;12.092;2023-03-01T03:08:08;102901.06;;;2.95;81.94
29505;BME280;16452;54.174;12.092;2023-03-01T03:10:38;102902.91;;;3.05;82.35
29505;BME280;16452;54.174;12.092;2023-03-01T03:13:14;102904.88;;;3.24;82.90
29505;BME280;16452;54.174;12.092;2023-03-01T03:15:41;102905.97;;;3.43;82.44
29505;BME280;16452;54.174;12.092;2023-03-01T03:18:13;102913.75;;;3.51;80.70
29505;BME280;16452;54.174;12.092;2023-03-01T03:20:41;102916.50;;;3.64;80.00
29505;BME280;16452;54.174;12.092;2023-03-01T03:23:07;102913.97;;;3.66;80.25
29505;BME280;16452;54.174;12.092;2023-03-01T03:25:33;102913.00;;;3.58;80.29
29505;BME280;16452;54.174;12.092;2023-03-01T03:28:03;102914.63;;;3.51;81.51
29505;BME280;16452;54.174;12.092;2023-03-01T03:30:38;102910.09;;;3.32;82.00
29505;BME280;16452;54.174;12.092;2023-03-01T03:33:08;102907.69;;;3.44;82.43
29505;BME280;16452;54.174;12.092;2023-03-01T03:35:41;102910.31;;;3.47;82.23
29505;BME280;16452;54.174;12.092;2023-03-01T03:38:11;102900.75;;;3.40;84.03
29505;BME280;16452;54.174;12.092;2023-03-01T03:40:50;102902.38;;;3.30;84.03
29505;BME280;16452;54.174;12.092;2023-03-01T03:43:22;102900.66;;;3.33;85.64
29505;BME280;16452;54.174;12.092;2023-03-01T03:45:50;102893.03;;;3.40;86.35
29505;BME280;16452;54.174;12.092;2023-03-01T03:48:17;102890.88;;;3.04;85.89
29505;BME280;16452;54.174;12.092;2023-03-01T03:50:55;102892.16;;;3.40;85.59
29505;BME280;16452;54.174;12.092;2023-03-01T03:53:25;102897.31;;;3.37;85.42
29505;BME280;16452;54.174;12.092;2023-03-01T03:55:51;102897.00;;;3.12;86.13
29505;BME280;16452;54.174;12.092;2023-03-01T03:58:19;102900.50;;;3.19;87.11
29505;BME280;16452;54.174;12.092;2023-03-01T04:00:49;102906.78;;;3.41;87.07
29505;BME280;16452;54.174;12.092;2023-03-01T04:03:18;102910.97;;;3.31;87.09
29505;BME280;16452;54.174;12.092;2023-03-01T04:05:47;102917.75;;;3.24;87.63
29505;BME280;16452;54.174;12.092;2023-03-01T04:08:17;102912.19;;;2.94;88.70
29505;BME280;16452;54.174;12.092;2023-03-01T04:10:47;102912.31;;;3.02;89.01
29505;BME280;16452;54.174;12.092;2023-03-01T04:13:18;102908.88;;;3.04;88.48
29505;BME280;16452;54.174;12.092;2023-03-01T04:15:49;102905.38;;;2.99;88.50
29505;BME280;16452;54.174;12.092;2023-03-01T04:18:17;102903.19;;;3.28;87.20
29505;BME280;16452;54.174;12.092;2023-03-01T04:20:44;102905.59;;;3.14;87.96
29505;BME280;16452;54.174;12.092;2023-03-01T04:28:35;102902.13;;;3.12;89.01
29505;BME280;16452;54.174;12.092;2023-03-01T04:31:08;102890.16;;;3.14;90.14
29505;BME280;16452;54.174;12.092;2023-03-01T04:33:53;102897.00;;;3.15;91.76
29505;BME280;16452;54.174;12.092;2023-03-01T04:36:28;102893.00;;;3.36;89.58
29505;BME280;16452;54.174;12.092;2023-03-01T04:38:55;102895.03;;;2.95;90.20
29505;BME280;16452;54.174;12.092;2023-03-01T04:41:24;102887.84;;;2.74;91.73
29505;BME280;16452;54.174;12.092;2023-03-01T04:43:50;102892.19;;;2.73;92.35
29505;BME280;16452;54.174;12.092;2023-03-01T04:46:18;102880.63;;;3.09;91.52
29505;BME280;16452;54.174;12.092;2023-03-01T04:48:45;102879.47;;;2.87;92.24
29505;BME280;16452;54.174;12.092;2023-03-01T04:51:13;102876.72;;;2.72;92.93
29505;BME280;16452;54.174;12.092;2023-03-01T04:53:40;102872.28;;;2.62;93.61
29505;BME280;16452;54.174;12.092;2023-03-01T04:56:06;102872.13;;;2.53;93.09
29505;BME280;16452;54.174;12.092;2023-03-01T04:58:32;102873.13;;;2.61;93.73
29505;BME280;16452;54.174;12.092;2023-03-01T05:00:58;102877.56;;;2.72;92.63
29505;BME280;16452;54.174;12.092;2023-03-01T05:03:23;102873.31;;;2.76;92.77
29505;BME280;16452;54.174;12.092;2023-03-01T05:05:51;102881.19;;;2.86;92.63
29505;BME280;16452;54.174;12.092;2023-03-01T05:08:18;102883.03;;;2.95;92.81
29505;BME280;16452;54.174;12.092;2023-03-01T05:10:52;102883.91;;;2.97;92.91
29505;BME280;16452;54.174;12.092;2023-03-01T05:13:20;102881.22;;;2.88;92.23
29505;BME280;16452;54.174;12.092;2023-03-01T05:16:00;102877.75;;;2.84;92.71
29505;BME280;16452;54.174;12.092;2023-03-01T05:18:28;102866.19;;;2.58;94.43
29505;BME280;16452;54.174;12.092;2023-03-01T05:21:13;102869.84;;;2.72;94.61
29505;BME280;16452;54.174;12.092;2023-03-01T05:23:41;102868.06;;;2.68;95.55
29505;BME280;16452;54.174;12.092;2023-03-01T05:26:08;102874.03;;;2.66;95.27
29505;BME280;16452;54.174;12.092;2023-03-01T05:28:34;102873.09;;;2.59;94.69
29505;BME280;16452;54.174;12.092;2023-03-01T05:31:00;102868.75;;;2.55;95.44
29505;BME280;16452;54.174;12.092;2023-03-01T05:33:26;102868.16;;;2.73;95.09
29505;BME280;16452;54.174;12.092;2023-03-01T05:35:53;102867.41;;;2.81;94.22
29505;BME280;16452;54.174;12.092;2023-03-01T05:38:19;102869.72;;;2.65;94.59
29505;BME280;16452;54.174;12.092;2023-03-01T05:40:48;102875.72;;;2.64;95.05
29505;BME280;16452;54.174;12.092;2023-03-01T05:43:15;102872.28;;;2.63;95.94
29505;BME280;16452;54.174;12.092;2023-03-01T05:45:42;102869.78;;;2.68;96.23
29505;BME280;16452;54.174;12.092;2023-03-01T05:48:10;102867.94;;;2.59;96.89
29505;BME280;16452;54.174;12.092;2023-03-01T05:50:42;102870.97;;;2.91;95.98
29505;BME280;16452;54.174;12.092;2023-03-01T05:53:18;102873.75;;;3.08;95.31
29505;BME280;16452;54.174;12.092;2023-03-01T05:55:48;102869.13;;;2.82;95.56
29505;BME280;16452;54.174;12.092;2023-03-01T05:58:18;102873.25;;;2.71;95.71
29505;BME280;16452;54.174;12.092;2023-03-01T06:00:46;102867.56;;;2.94;95.42
29505;BME280;16452;54.174;12.092;2023-03-01T06:03:15;102864.19;;;2.99;95.45
29505;BME280;16452;54.174;12.092;2023-03-01T06:05:42;102867.91;;;2.58;97.74
29505;BME280;16452;54.174;12.092;2023-03-01T06:08:10;102865.47;;;2.68;99.83
29505;BME280;16452;54.174;12.092;2023-03-01T06:10:36;102870.00;;;2.83;98.71
29505;BME280;16452;54.174;12.092;2023-03-01T06:13:03;102868.66;;;3.11;96.99
29505;BME280;16452;54.174;12.092;2023-03-01T06:15:28;102871.25;;;3.15;96.48
29505;BME280;16452;54.174;12.092;2023-03-01T06:17:55;102872.13;;;3.16;96.52
29505;BME280;16452;54.174;12.092;2023-03-01T06:20:26;102870.53;;;3.24;96.48
29505;BME280;16452;54.174;12.092;2023-03-01T06:22:52;102869.78;;;3.34;96.95
29505;BME280;16452;54.174;12.092;2023-03-01T06:25:22;102858.59;;;3.32;98.42
29505;BME280;16452;54.174;12.092;2023-03-01T06:27:48;102865.84;;;3.65;96.92
29505;BME280;16452;54.174;12.092;2023-03-01T06:30:17;102858.13;;;3.68;97.32
29505;BME280;16452;54.174;12.092;2023-03-01T06:32:43;102859.97;;;3.80;97.57
29505;BME280;16452;54.174;12.092;2023-03-01T06:35:12;102860.16;;;3.99;97.93
29505;BME280;16452;54.174;12.092;2023-03-01T06:37:39;102868.81;;;4.09;97.20
29505;BME280;16452;54.174;12.092;2023-03-01T06:40:06;102864.44;;;3.99;98.61
29505;BME280;16452;54.174;12.092;2023-03-01T06:42:35;102860.03;;;3.87;100.00
29505;BME280;16452;54.174;12.092;2023-03-01T06:45:01;102867.78;;;3.90;100.00
29505;BME280;16452;54.174;12.092;2023-03-01T06:47:27;102865.94;;;3.76;100.00
29505;BME280;16452;54.174;12.092;2023-03-01T06:49:52;102878.06;;;3.86;100.00
29505;BME280;16452;54.174;12.092;2023-03-01T06:52:18;102878.00;;;3.78;100.00
29505;BME280;16452;54.174;12.092;2023-03-01T06:54:47;102889.34;;;3.97;100.00
29505;BME280;16452;54.174;12.092;2023-03-01T06:57:13;102877.31;;;3.97;100.00
29505;BME280;16452;54.174;12.092;2023-03-01T06:59:39;102883.53;;;4.19;100.00
29505;BME280;16452;54.174;12.092;2023-03-01T07:02:04;102885.91;;;3.98;100.00
29505;BME280;16452;54.174;12.092;2023-03-01T07:04:30;102888.47;;;3.95;100.00
29505;BME280;16452;54.174;12.092;2023-03-01T07:06:56;102889.59;;;4.24;100.00
29505;BME280;16452;54.174;12.092;2023-03-01T07:09:23;102880.66;;;3.84;100.00
29505;BME280;16452;54.174;12.092;2023-03-01T07:11:50;102889.38;;;4.00;100.00
29505;BME280;16452;54.174;12.092;2023-03-01T07:14:16;102888.69;;;4.18;100.00
29505;BME280;16452;54.174;12.092;2023-03-01T07:16:42;102879.19;;;4.15;100.00
29505;BME280;16452;54.174;12.092;2023-03-01T07:19:07;102879.19;;;4.15;100.00
29505;BME280;16452;54.174;12.092;2023-03-01T07:21:33;102880.78;;;4.02;100.00
29505;BME280;16452;54.174;12.092;2023-03-01T07:23:59;102881.78;;;4.17;100.00
29505;BME280;16452;54.174;12.092;2023-03-01T07:26:24;102875.91;;;4.33;100.00
29505;BME280;16452;54.174;12.092;2023-03-01T07:28:50;102877.59;;;4.28;100.00
29505;BME280;16452;54.174;12.092;2023-03-01T07:31:16;102885.41;;;4.35;100.00
29505;BME280;16452;54.174;12.092;2023-03-01T07:33:41;102887.06;;;4.32;100.00
29505;BME280;16452;54.174;12.092;2023-03-01T07:36:08;102889.84;;;4.56;100.00
29505;BME280;16452;54.174;12.092;2023-03-01T07:38:34;102883.03;;;4.72;100.00
29505;BME280;16452;54.174;12.092;2023-03-01T07:41:03;102899.34;;;4.66;100.00
29505;BME280;16452;54.174;12.092;2023-03-01T07:43:29;102900.09;;;4.50;100.00
29505;BME280;16452;54.174;12.092;2023-03-01T07:46:01;102899.31;;;4.60;100.00
29505;BME280;16452;54.174;12.092;2023-03-01T07:48:29;102899.31;;;4.59;100.00
29505;BME280;16452;54.174;12.092;2023-03-01T07:50:58;102898.47;;;4.60;100.00
29505;BME280;16452;54.174;12.092;2023-03-01T07:53:24;102911.38;;;4.61;100.00
29505;BME280;16452;54.174;12.092;2023-03-01T07:55:50;102896.84;;;4.78;100.00
29505;BME280;16452;54.174;12.092;2023-03-01T07:58:25;102905.38;;;4.67;100.00
29505;BME280;16452;54.174;12.092;2023-03-01T08:00:50;102898.78;;;5.10;100.00
29505;BME280;16452;54.174;12.092;2023-03-01T08:03:16;102894.56;;;5.28;100.00
29505;BME280;16452;54.174;12.092;2023-03-01T08:05:42;102900.56;;;5.23;100.00
29505;BME280;16452;54.174;12.092;2023-03-01T08:08:08;102899.78;;;5.54;100.00
29505;BME280;16452;54.174;12.092;2023-03-01T08:10:33;102894.63;;;5.54;100.00
29505;BME280;16452;54.174;12.092;2023-03-01T08:12:59;102894.59;;;5.41;100.00
29505;BME280;16452;54.174;12.092;2023-03-01T08:15:25;102896.41;;;5.64;100.00
29505;BME280;16452;54.174;12.092;2023-03-01T08:17:51;102892.94;;;5.62;100.00
29505;BME280;16452;54.174;12.092;2023-03-01T08:20:17;102893.72;;;5.43;100.00
29505;BME280;16452;54.174;12.092;2023-03-01T08:22:42;102898.13;;;5.70;100.00
29505;BME280;16452;54.174;12.092;2023-03-01T08:25:09;102891.25;;;5.81;100.00
29505;BME280;16452;54.174;12.092;2023-03-01T08:27:35;102891.22;;;5.58;100.00
29505;BME280;16452;54.174;12.092;2023-03-01T08:30:01;102887.81;;;5.87;100.00
29505;BME280;16452;54.174;12.092;2023-03-01T08:32:27;102890.44;;;6.00;100.00
29505;BME280;16452;54.174;12.092;2023-03-01T08:34:52;102888.75;;;6.04;100.00
29505;BME280;16452;54.174;12.092;2023-03-01T08:37:18;102879.25;;;6.00;100.00
29505;BME280;16452;54.174;12.092;2023-03-01T08:39:44;102875.78;;;5.90;100.00
29505;BME280;16452;54.174;12.092;2023-03-01T08:42:13;102874.06;;;6.18;100.00
29505;BME280;16452;54.174;12.092;2023-03-01T08:44:38;102872.34;;;5.91;100.00
29505;BME280;16452;54.174;12.092;2023-03-01T08:47:04;102874.94;;;6.20;100.00
29505;BME280;16452;54.174;12.092;2023-03-01T08:49:30;102868.91;;;6.19;100.00
29505;BME280;16452;54.174;12.092;2023-03-01T08:51:58;102878.38;;;5.87;100.00
29505;BME280;16452;54.174;12.092;2023-03-01T08:54:24;102885.28;;;6.02;100.00
29505;BME280;16452;54.174;12.092;2023-03-01T08:56:50;102893.94;;;6.27;100.00
29505;BME280;16452;54.174;12.092;2023-03-01T08:59:17;102894.78;;;6.10;100.00
29505;BME280;16452;54.174;12.092;2023-03-01T09:01:43;102899.97;;;6.00;100.00
29505;BME280;16452;54.174;12.092;2023-03-01T09:04:11;102899.94;;;6.12;100.00
29505;BME280;16452;54.174;12.092;2023-03-01T09:06:37;102899.94;;;6.07;100.00
29505;BME280;16452;54.174;12.092;2023-03-01T09:09:05;102900.84;;;6.34;100.00
29505;BME280;16452;54.174;12.092;2023-03-01T09:11:31;102907.75;;;6.35;100.00
29505;BME280;16452;54.174;12.092;2023-03-01T09:13:57;102903.41;;;6.40;100.00
29505;BME280;16452;54.174;12.092;2023-03-01T09:16:23;102911.16;;;6.69;100.00
29505;BME280;16452;54.174;12.092;2023-03-01T09:18:53;102905.94;;;6.93;100.00
29505;BME280;16452;54.174;12.092;2023-03-01T09:21:22;102912.00;;;6.72;100.00
29505;BME280;16452;54.174;12.092;2023-03-01T09:23:49;102906.00;;;6.46;100.00
29505;BME280;16452;54.174;12.092;2023-03-01T09:26:20;102899.06;;;6.71;100.00
29505;BME280;16452;54.174;12.092;2023-03-01T09:28:50;102906.84;;;6.58;100.00
29505;BME280;16452;54.174;12.092;2023-03-01T09:31:19;102899.94;;;6.59;100.00
29505;BME280;16452;54.174;12.092;2023-03-01T09:33:48;102898.22;;;6.35;100.00
29505;BME280;16452;54.174;12.092;2023-03-01T09:36:19;102888.75;;;6.28;100.00
29505;BME280;16452;54.174;12.092;2023-03-01T09:38:47;102891.31;;;6.30;100.00
29505;BME280;16452;54.174;12.092;2023-03-01T09:41:45;102880.09;;;6.49;100.00
29505;BME280;16452;54.174;12.092;2023-03-01T09:46:59;102886.09;;;6.65;100.00
29505;BME280;16452;54.174;12.092;2023-03-01T09:49:32;102874.06;;;6.32;100.00
29505;BME280;16452;54.174;12.092;2023-03-01T09:52:41;102883.56;;;6.43;100.00
29505;BME280;16452;54.174;12.092;2023-03-01T09:55:17;102884.44;;;6.39;100.00
29505;BME280;16452;54.174;12.092;2023-03-01T09:58:38;102898.22;;;6.63;100.00
29505;BME280;16452;54.174;12.092;2023-03-01T10:01:33;102905.97;;;6.72;100.00
29505;BME280;16452;54.174;12.092;2023-03-01T10:07:15;102894.75;;;6.47;100.00
29505;BME280;16452;54.174;12.092;2023-03-01T10:09:44;102894.72;;;6.77;100.00
29505;BME280;16452;54.174;12.092;2023-03-01T10:12:27;102898.19;;;6.66;100.00
29505;BME280;16452;54.174;12.092;2023-03-01T10:15:28;102900.81;;;6.69;100.00
29505;BME280;16452;54.174;12.092;2023-03-01T10:17:57;102899.06;;;6.72;100.00
29505;BME280;16452;54.174;12.092;2023-03-01T10:20:46;102897.31;;;6.71;100.00
29505;BME280;16452;54.174;12.092;2023-03-01T10:23:16;102896.47;;;6.71;100.00
29505;BME280;16452;54.174;12.092;2023-03-01T10:26:04;102892.13;;;6.91;100.00
29505;BME280;16452;54.174;12.092;2023-03-01T10:31:04;102887.78;;;6.96;100.00
29505;BME280;16452;54.174;12.092;2023-03-01T10:33:32;102885.25;;;6.70;100.00
29505;BME280;16452;54.174;12.092;2023-03-01T10:36:02;102877.41;;;6.96;100.00
29505;BME280;16452;54.174;12.092;2023-03-01T10:38:31;102876.56;;;6.82;100.00
29505;BME280;16452;54.174;12.092;2023-03-01T10:41:12;102877.38;;;6.99;100.00
29505;BME280;16452;54.174;12.092;2023-03-01T10:43:46;102873.22;;;6.51;100.00
29505;BME280;16452;54.174;12.092;2023-03-01T10:46:35;102877.44;;;6.88;100.00
29505;BME280;16452;54.174;12.092;2023-03-01T10:49:21;102880.84;;;7.01;100.00
29505;BME280;16452;54.174;12.092;2023-03-01T10:51:51;102881.75;;;6.91;100.00
29505;BME280;16452;54.174;12.092;2023-03-01T10:54:21;102883.50;;;6.77;100.00
29505;BME280;16452;54.174;12.092;2023-03-01T10:56:54;102880.03;;;6.91;100.00
29505;BME280;16452;54.174;12.092;2023-03-01T10:59:34;102878.28;;;6.98;100.00
29505;BME280;16452;54.174;12.092;2023-03-01T11:04:35;102883.50;;;6.83;100.00
29505;BME280;16452;54.174;12.092;2023-03-01T11:07:02;102885.13;;;7.13;100.00
29505;BME280;16452;54.174;12.092;2023-03-01T11:09:33;102876.50;;;7.14;100.00
29505;BME280;16452;54.174;12.092;2023-03-01T11:12:11;102881.69;;;7.09;100.00
29505;BME280;16452;54.174;12.092;2023-03-01T11:15:04;102879.91;;;7.17;100.00
29505;BME280;16452;54.174;12.092;2023-03-01T11:17:31;102869.63;;;6.96;100.00
29505;BME280;16452;54.174;12.092;2023-03-01T11:22:33;102865.34;;;6.87;100.00
29505;BME280;16452;54.174;12.092;2023-03-01T11:25:01;102873.09;;;6.93;100.00
29505;BME280;16452;54.174;12.092;2023-03-01T11:27:40;102877.41;;;7.04;100.00
29505;BME280;16452;54.174;12.092;2023-03-01T11:35:28;102872.28;;;6.79;100.00
29505;BME280;16452;54.174;12.092;2023-03-01T11:40:58;102869.66;;;6.97;100.00
29505;BME280;16452;54.174;12.092;2023-03-01T11:43:56;102880.03;;;6.91;100.00
29505;BME280;16452;54.174;12.092;2023-03-01T11:52:14;102875.75;;;6.72;100.00
29505;BME280;16452;54.174;12.092;2023-03-01T11:55:21;102882.69;;;6.69;100.00
29505;BME280;16452;54.174;12.092;2023-03-01T11:58:38;102875.78;;;6.43;100.00
29505;BME280;16452;54.174;12.092;2023-03-01T12:07:14;102874.03;;;6.67;100.00
29505;BME280;16452;54.174;12.092;2023-03-01T12:26:33;102847.97;;;7.15;100.00
29505;BME280;16452;54.174;12.092;2023-03-01T12:29:30;102842.03;;;6.92;100.00
29505;BME280;16452;54.174;12.092;2023-03-01T12:38:01;102843.75;;;6.91;100.00
29505;BME280;16452;54.174;12.092;2023-03-01T12:49:26;102825.66;;;6.85;100.00
29505;BME280;16452;54.174;12.092;2023-03-01T12:52:09;102823.94;;;6.78;100.00
29505;BME280;16452;54.174;12.092;2023-03-01T12:54:37;102823.13;;;6.53;100.00
29505;BME280;16452;54.174;12.092;2023-03-01T12:57:34;102832.63;;;6.53;100.00
29505;BME280;16452;54.174;12.092;2023-03-01T13:00:32;102826.56;;;6.75;100.00
29505;BME280;16452;54.174;12.092;2023-03-01T13:06:15;102818.81;;;6.63;100.00
29505;BME280;16452;54.174;12.092;2023-03-01T13:11:23;102822.19;;;6.86;100.00
29505;BME280;16452;54.174;12.092;2023-03-01T13:13:49;102822.19;;;6.86;100.00
29505;BME280;16452;54.174;12.092;2023-03-01T13:16:41;102818.81;;;6.48;100.00
29505;BME280;16452;54.174;12.092;2023-03-01T13:19:23;102814.53;;;6.51;100.00
29505;BME280;16452;54.174;12.092;2023-03-01T13:21:52;102816.25;;;6.49;100.00
29505;BME280;16452;54.174;12.092;2023-03-01T13:24:40;102818.00;;;6.46;100.00
29505;BME280;16452;54.174;12.092;2023-03-01T13:32:24;102820.56;;;6.37;100.00
29505;BME280;16452;54.174;12.092;2023-03-01T13:34:56;102825.78;;;6.34;100.00
29505;BME280;16452;54.174;12.092;2023-03-01T13:37:28;102829.22;;;6.31;100.00
29505;BME280;16452;54.174;12.092;2023-03-01T13:39:57;102827.47;;;6.41;100.00
29505;BME280;16452;54.174;12.092;2023-03-01T13:42:40;102826.63;;;6.25;100.00
29505;BME280;16452;54.174;12.092;2023-03-01T13:45:38;102825.78;;;6.17;100.00
29505;BME280;16452;54.174;12.092;2023-03-01T13:48:18;102829.25;;;6.04;100.00
29505;BME280;16452;54.174;12.092;2023-03-01T13:50:53;102832.69;;;6.13;100.00
29505;BME280;16452;54.174;12.092;2023-03-01T13:53:24;102825.78;;;6.15;100.00
29505;BME280;16452;54.174;12.092;2023-03-01T13:56:20;102822.34;;;6.00;100.00
29505;BME280;16452;54.174;12.092;2023-03-01T13:59:19;102820.59;;;5.87;100.00
29505;BME280;16452;54.174;12.092;2023-03-01T14:01:54;102820.63;;;5.93;100.00
29505;BME280;16452;54.174;12.092;2023-03-01T14:04:23;102816.28;;;5.89;100.00
29505;BME280;16452;54.174;12.092;2023-03-01T14:06:49;102809.38;;;5.75;100.00
29505;BME280;16452;54.174;12.092;2023-03-01T14:09:24;102812.81;;;5.73;100.00
29505;BME280;16452;54.174;12.092;2023-03-01T14:15:33;102795.63;;;5.93;100.00
29505;BME280;16452;54.174;12.092;2023-03-01T14:18:14;102791.28;;;5.89;100.00
29505;BME280;16452;54.174;12.092;2023-03-01T14:20:45;102797.31;;;5.90;100.00
29505;BME280;16452;54.174;12.092;2023-03-01T14:23:21;102794.75;;;5.93;100.00
29505;BME280;16452;54.174;12.092;2023-03-01T14:25:55;102799.91;;;5.97;100.00
29505;BME280;16452;54.174;12.092;2023-03-01T14:28:28;102802.50;;;5.97;100.00
29505;BME280;16452;54.174;12.092;2023-03-01T14:30:57;102797.31;;;5.76;100.00
29505;BME280;16452;54.174;12.092;2023-03-01T14:33:34;102805.03;;;5.55;100.00
29505;BME280;16452;54.174;12.092;2023-03-01T14:36:11;102802.44;;;5.47;100.00
29505;BME280;16452;54.174;12.092;2023-03-01T14:38:45;102805.03;;;5.53;100.00